Airfield :
LOGIN :

Register | Disclaimer

   EN    FR    IT 

 










Legend :    VFR   Marginal VFR   IFR   Intensive IFR   Very Intensive IFR
Visi :
Ceiling :
>= 8 km
>= 3000ft
5 to 8 km
1000 to 3000 ft
1500m to 5 km
500 to 1000 ft
800 to 1500m
200 to 500 ft
< 800m
< 200 ft
Symbols :   Thunderstorms  Fog  Heavy snow  Heavy precipitations  Wind > 20 kt
SIGMETs :     Misc.  Thunderstorms  Icing  Turbulence  Mountain Waves  Volcanic Ashes






- Airport Elevation : 686 ft


LYKV - Ladevci

CURRENT METAR :
  • 031400Z 30005KT 260V330 4000 -SN SCT010 BKN025 01/00 Q1023 RESN NOSIG

EXPIRED METARs :
  • 031330Z 32009KT 290V350 2000 SN SCT010 BKN030 OVC070 02/M02 Q1023 NOSIG
  • 031300Z 31008KT 280V360 9999 FEW025 BKN037 OVC060 02/M03 Q1022 TEMPO 4000 -SN BKN015 BKN030
  • 031230Z 32008KT 290V360 9999 FEW028 BKN040 OVC060 02/M03 Q1022 TEMPO 4000 -SN BKN015 BKN030
  • 031200Z 33008KT 290V020 9999 BKN035 02/M03 Q1022 NOSIG
  • 031130Z 32009KT 300V360 9999 BKN033 03/M03 Q1022 NOSIG
  • 031100Z 34008KT 300V010 9999 BKN033 03/M03 Q1022 NOSIG
  • 031030Z 33009KT 300V010 9999 FEW017 BKN030 03/M02 Q1022 NOSIG
  • 031000Z 33008KT 280V020 9999 FEW015 BKN028 02/M02 Q1022 NOSIG
  • 030930Z 34006KT 300V010 9999 SCT015 BKN023 02/M02 Q1022 TEMPO 4000 SN BKN012 BKN023
  • 030900Z 31006KT 270V330 9999 4000S SCT015 BKN023 02/M00 Q1021 TEMPO 4000 SN BKN012 BKN023

TAF TAF LYKV
Valid from the 03 at 12:00 until the 04 at 12:00 UTC


031100Z 0312/0412 32010KT 9999 SCT015 BKN027 TX03/0412Z TNM06/0406Z
TEMPO 0312/0316 4000 -SN BKN012 BKN023
BECMG 0315/0317 26004KT



MET'MAP, your aeronautical weather chart ! - Copyright ORBIFLY December 2007 - Disclaimer

ORBIFLY MET'MAP TEAM :

Programming & Development : Alexandra Zaïnal
Original concept : Baudouin d'Aumeries
Technical & hardware support : Manuel Goepfert
Assistance : Marc-Olivier Méhu




SOURCES & CREDITS :

   NOAA